sensor_id;sensor_type;location;lat;lon;timestamp;temperature;humidity
64843;DHT22;51310;52.198;5.422;2022-12-29T00:02:23;11.70;99.90
64843;DHT22;51310;52.198;5.422;2022-12-29T00:04:49;10.80;99.90
64843;DHT22;51310;52.198;5.422;2022-12-29T00:07:16;12.20;99.90
64843;DHT22;51310;52.198;5.422;2022-12-29T00:09:42;10.80;99.90
64843;DHT22;51310;52.198;5.422;2022-12-29T00:12:08;11.40;99.90
64843;DHT22;51310;52.198;5.422;2022-12-29T00:14:34;10.90;99.90
64843;DHT22;51310;52.198;5.422;2022-12-29T00:17:18;11.00;99.90
64843;DHT22;51310;52.198;5.422;2022-12-29T00:19:44;10.90;99.90
64843;DHT22;51310;52.198;5.422;2022-12-29T00:22:28;11.00;99.90
64843;DHT22;51310;52.198;5.422;2022-12-29T00:25:13;13.20;99.90
64843;DHT22;51310;52.198;5.422;2022-12-29T00:27:58;11.00;99.90
64843;DHT22;51310;52.198;5.422;2022-12-29T00:30:42;10.90;99.90
64843;DHT22;51310;52.198;5.422;2022-12-29T00:33:30;12.20;99.90
64843;DHT22;51310;52.198;5.422;2022-12-29T00:36:36;11.80;99.90
64843;DHT22;51310;52.198;5.422;2022-12-29T00:39:14;11.00;99.90
64843;DHT22;51310;52.198;5.422;2022-12-29T00:42:07;11.00;99.90
64843;DHT22;51310;52.198;5.422;2022-12-29T00:44:52;11.10;99.90
64843;DHT22;51310;52.198;5.422;2022-12-29T00:47:18;11.10;99.90
64843;DHT22;51310;52.198;5.422;2022-12-29T00:49:43;11.90;99.90
64843;DHT22;51310;52.198;5.422;2022-12-29T00:52:11;11.10;99.90
64843;DHT22;51310;52.198;5.422;2022-12-29T00:54:39;11.80;99.90
64843;DHT22;51310;52.198;5.422;2022-12-29T00:57:07;11.20;99.90
64843;DHT22;51310;52.198;5.422;2022-12-29T00:59:35;11.50;99.90
64843;DHT22;51310;52.198;5.422;2022-12-29T01:02:01;11.30;99.90
64843;DHT22;51310;52.198;5.422;2022-12-29T01:04:27;11.20;99.90
64843;DHT22;51310;52.198;5.422;2022-12-29T01:06:53;11.20;99.90
64843;DHT22;51310;52.198;5.422;2022-12-29T01:09:19;12.70;99.90
64843;DHT22;51310;52.198;5.422;2022-12-29T01:12:05;11.10;99.90
64843;DHT22;51310;52.198;5.422;2022-12-29T01:14:32;11.10;99.90
64843;DHT22;51310;52.198;5.422;2022-12-29T01:16:58;11.20;99.90
64843;DHT22;51310;52.198;5.422;2022-12-29T01:19:24;11.20;99.90
64843;DHT22;51310;52.198;5.422;2022-12-29T01:21:50;11.10;99.90
64843;DHT22;51310;52.198;5.422;2022-12-29T01:24:18;11.50;99.90
64843;DHT22;51310;52.198;5.422;2022-12-29T01:26:45;11.10;99.90
64843;DHT22;51310;52.198;5.422;2022-12-29T01:29:11;11.10;99.90
64843;DHT22;51310;52.198;5.422;2022-12-29T01:31:37;11.00;99.90
64843;DHT22;51310;52.198;5.422;2022-12-29T01:34:03;10.90;99.90
64843;DHT22;51310;52.198;5.422;2022-12-29T01:36:29;10.80;99.90
64843;DHT22;51310;52.198;5.422;2022-12-29T01:38:55;11.30;99.90
64843;DHT22;51310;52.198;5.422;2022-12-29T01:41:22;10.70;99.90
64843;DHT22;51310;52.198;5.422;2022-12-29T01:46:18;10.60;99.90
64843;DHT22;51310;52.198;5.422;2022-12-29T01:48:47;10.60;99.90
64843;DHT22;51310;52.198;5.422;2022-12-29T01:51:16;11.30;99.90
64843;DHT22;51310;52.198;5.422;2022-12-29T01:53:42;10.50;99.90
64843;DHT22;51310;52.198;5.422;2022-12-29T01:56:12;12.10;99.90
64843;DHT22;51310;52.198;5.422;2022-12-29T01:58:44;10.50;99.90
64843;DHT22;51310;52.198;5.422;2022-12-29T02:01:13;10.50;99.90
64843;DHT22;51310;52.198;5.422;2022-12-29T02:03:41;11.80;99.90
64843;DHT22;51310;52.198;5.422;2022-12-29T02:06:19;10.60;99.90
64843;DHT22;51310;52.198;5.422;2022-12-29T02:08:50;10.60;99.90
64843;DHT22;51310;52.198;5.422;2022-12-29T02:11:17;12.10;99.90
64843;DHT22;51310;52.198;5.422;2022-12-29T02:13:44;12.40;99.90
64843;DHT22;51310;52.198;5.422;2022-12-29T02:22:41;10.60;99.90
64843;DHT22;51310;52.198;5.422;2022-12-29T02:35:10;10.60;99.90
64843;DHT22;51310;52.198;5.422;2022-12-29T02:40:51;10.60;99.90
64843;DHT22;51310;52.198;5.422;2022-12-29T02:43:44;12.30;99.90
64843;DHT22;51310;52.198;5.422;2022-12-29T02:46:33;10.60;99.90
64843;DHT22;51310;52.198;5.422;2022-12-29T02:49:10;10.70;99.90
64843;DHT22;51310;52.198;5.422;2022-12-29T02:51:40;10.70;99.90
64843;DHT22;51310;52.198;5.422;2022-12-29T02:54:13;10.60;99.90
64843;DHT22;51310;52.198;5.422;2022-12-29T02:57:00;10.70;99.90
64843;DHT22;51310;52.198;5.422;2022-12-29T02:59:25;10.70;99.90
64843;DHT22;51310;52.198;5.422;2022-12-29T03:02:18;10.70;99.90
64843;DHT22;51310;52.198;5.422;2022-12-29T03:10:54;10.70;99.90
64843;DHT22;51310;52.198;5.422;2022-12-29T03:13:38;10.60;99.90
64843;DHT22;51310;52.198;5.422;2022-12-29T03:19:26;10.70;99.90
64843;DHT22;51310;52.198;5.422;2022-12-29T03:22:05;10.70;99.90
64843;DHT22;51310;52.198;5.422;2022-12-29T03:24:55;10.70;99.90
64843;DHT22;51310;52.198;5.422;2022-12-29T03:27:32;10.60;99.90
64843;DHT22;51310;52.198;5.422;2022-12-29T03:30:04;10.70;99.90
64843;DHT22;51310;52.198;5.422;2022-12-29T03:32:34;10.70;99.90
64843;DHT22;51310;52.198;5.422;2022-12-29T03:35:04;10.60;99.90
64843;DHT22;51310;52.198;5.422;2022-12-29T03:37:39;10.60;99.90
64843;DHT22;51310;52.198;5.422;2022-12-29T03:40:08;11.50;99.90
64843;DHT22;51310;52.198;5.422;2022-12-29T03:42:36;10.40;99.90
64843;DHT22;51310;52.198;5.422;2022-12-29T03:45:05;10.40;99.90
64843;DHT22;51310;52.198;5.422;2022-12-29T03:47:32;10.30;99.90
64843;DHT22;51310;52.198;5.422;2022-12-29T03:49:58;12.10;99.90
64843;DHT22;51310;52.198;5.422;2022-12-29T03:52:23;11.70;99.90
64843;DHT22;51310;52.198;5.422;2022-12-29T03:54:49;10.40;99.90
64843;DHT22;51310;52.198;5.422;2022-12-29T03:57:15;10.30;99.90
64843;DHT22;51310;52.198;5.422;2022-12-29T03:59:41;10.40;99.90
64843;DHT22;51310;52.198;5.422;2022-12-29T04:02:06;12.20;99.90
64843;DHT22;51310;52.198;5.422;2022-12-29T04:04:32;10.30;99.90
64843;DHT22;51310;52.198;5.422;2022-12-29T04:06:58;10.30;99.90
64843;DHT22;51310;52.198;5.422;2022-12-29T04:09:23;10.30;99.90
64843;DHT22;51310;52.198;5.422;2022-12-29T04:11:49;10.20;99.90
64843;DHT22;51310;52.198;5.422;2022-12-29T04:14:15;10.20;99.90
64843;DHT22;51310;52.198;5.422;2022-12-29T04:16:40;10.10;99.90
64843;DHT22;51310;52.198;5.422;2022-12-29T04:19:06;11.80;99.90
64843;DHT22;51310;52.198;5.422;2022-12-29T04:21:33;10.10;99.90
64843;DHT22;51310;52.198;5.422;2022-12-29T04:23:59;10.20;99.90
64843;DHT22;51310;52.198;5.422;2022-12-29T04:26:25;10.20;99.90
64843;DHT22;51310;52.198;5.422;2022-12-29T04:28:51;10.20;99.90
64843;DHT22;51310;52.198;5.422;2022-12-29T04:31:16;10.30;99.90
64843;DHT22;51310;52.198;5.422;2022-12-29T04:33:42;10.30;99.90
64843;DHT22;51310;52.198;5.422;2022-12-29T04:36:08;10.30;99.90
64843;DHT22;51310;52.198;5.422;2022-12-29T04:38:34;11.70;99.90
64843;DHT22;51310;52.198;5.422;2022-12-29T04:41:00;10.30;99.90
64843;DHT22;51310;52.198;5.422;2022-12-29T04:43:27;10.30;99.90
64843;DHT22;51310;52.198;5.422;2022-12-29T04:45:53;10.40;99.90
64843;DHT22;51310;52.198;5.422;2022-12-29T04:48:19;12.00;99.90
64843;DHT22;51310;52.198;5.422;2022-12-29T04:50:48;11.40;99.90
64843;DHT22;51310;52.198;5.422;2022-12-29T04:53:15;10.50;98.50
64843;DHT22;51310;52.198;5.422;2022-12-29T04:55:42;12.00;97.70
64843;DHT22;51310;52.198;5.422;2022-12-29T04:58:08;10.50;98.30
64843;DHT22;51310;52.198;5.422;2022-12-29T05:00:34;10.40;99.40
64843;DHT22;51310;52.198;5.422;2022-12-29T05:02:59;10.40;97.30
64843;DHT22;51310;52.198;5.422;2022-12-29T05:05:25;12.20;97.30
64843;DHT22;51310;52.198;5.422;2022-12-29T05:07:51;10.30;98.20
64843;DHT22;51310;52.198;5.422;2022-12-29T05:10:17;10.40;99.70
64843;DHT22;51310;52.198;5.422;2022-12-29T05:12:43;10.20;99.90
64843;DHT22;51310;52.198;5.422;2022-12-29T05:15:10;10.20;99.90
64843;DHT22;51310;52.198;5.422;2022-12-29T05:17:36;10.20;99.90
64843;DHT22;51310;52.198;5.422;2022-12-29T05:20:04;10.20;99.90
64843;DHT22;51310;52.198;5.422;2022-12-29T05:22:30;10.20;99.90
64843;DHT22;51310;52.198;5.422;2022-12-29T05:24:56;11.30;99.90
64843;DHT22;51310;52.198;5.422;2022-12-29T05:27:22;10.30;99.90
64843;DHT22;51310;52.198;5.422;2022-12-29T05:29:47;10.20;99.90
64843;DHT22;51310;52.198;5.422;2022-12-29T05:32:13;10.30;99.00
64843;DHT22;51310;52.198;5.422;2022-12-29T05:34:39;10.30;99.30
64843;DHT22;51310;52.198;5.422;2022-12-29T05:37:05;10.30;98.50
64843;DHT22;51310;52.198;5.422;2022-12-29T05:39:30;11.60;99.90
64843;DHT22;51310;52.198;5.422;2022-12-29T05:41:56;10.20;99.90
64843;DHT22;51310;52.198;5.422;2022-12-29T05:44:22;10.10;99.90
64843;DHT22;51310;52.198;5.422;2022-12-29T05:46:48;10.00;99.90
64843;DHT22;51310;52.198;5.422;2022-12-29T05:49:14;10.00;99.90
64843;DHT22;51310;52.198;5.422;2022-12-29T05:51:40;9.90;99.90
64843;DHT22;51310;52.198;5.422;2022-12-29T05:54:06;9.80;99.90
64843;DHT22;51310;52.198;5.422;2022-12-29T05:56:32;9.80;99.90
64843;DHT22;51310;52.198;5.422;2022-12-29T05:58:58;9.80;99.90
64843;DHT22;51310;52.198;5.422;2022-12-29T06:01:23;9.80;99.90
64843;DHT22;51310;52.198;5.422;2022-12-29T06:03:49;9.80;99.90
64843;DHT22;51310;52.198;5.422;2022-12-29T06:06:15;9.70;99.90
64843;DHT22;51310;52.198;5.422;2022-12-29T06:08:41;9.80;99.90
64843;DHT22;51310;52.198;5.422;2022-12-29T06:11:07;9.70;99.90
64843;DHT22;51310;52.198;5.422;2022-12-29T06:13:32;9.80;99.90
64843;DHT22;51310;52.198;5.422;2022-12-29T06:15:58;9.80;99.90
64843;DHT22;51310;52.198;5.422;2022-12-29T06:18:24;10.70;99.90
64843;DHT22;51310;52.198;5.422;2022-12-29T06:20:49;9.90;99.90
64843;DHT22;51310;52.198;5.422;2022-12-29T06:23:15;10.40;99.90
64843;DHT22;51310;52.198;5.422;2022-12-29T06:25:42;10.80;99.90
64843;DHT22;51310;52.198;5.422;2022-12-29T06:28:07;9.80;99.90
64843;DHT22;51310;52.198;5.422;2022-12-29T06:30:33;9.80;99.90
64843;DHT22;51310;52.198;5.422;2022-12-29T06:32:59;9.80;99.90
64843;DHT22;51310;52.198;5.422;2022-12-29T06:35:25;9.80;99.90
64843;DHT22;51310;52.198;5.422;2022-12-29T06:37:50;9.70;99.90
64843;DHT22;51310;52.198;5.422;2022-12-29T06:40:17;9.80;99.90
64843;DHT22;51310;52.198;5.422;2022-12-29T06:42:43;9.60;99.90
64843;DHT22;51310;52.198;5.422;2022-12-29T06:45:09;9.50;99.90
64843;DHT22;51310;52.198;5.422;2022-12-29T06:47:35;9.50;99.90
64843;DHT22;51310;52.198;5.422;2022-12-29T06:50:02;9.60;99.90
64843;DHT22;51310;52.198;5.422;2022-12-29T06:52:28;9.30;99.90
64843;DHT22;51310;52.198;5.422;2022-12-29T06:54:54;9.30;99.90
64843;DHT22;51310;52.198;5.422;2022-12-29T06:57:20;10.60;99.90
64843;DHT22;51310;52.198;5.422;2022-12-29T06:59:46;9.40;99.90
64843;DHT22;51310;52.198;5.422;2022-12-29T07:02:13;9.50;99.90
64843;DHT22;51310;52.198;5.422;2022-12-29T07:04:43;9.40;99.90
64843;DHT22;51310;52.198;5.422;2022-12-29T07:07:09;9.40;99.90
64843;DHT22;51310;52.198;5.422;2022-12-29T07:09:34;10.50;99.90
64843;DHT22;51310;52.198;5.422;2022-12-29T07:12:00;9.50;99.50
64843;DHT22;51310;52.198;5.422;2022-12-29T07:14:26;9.60;97.60
64843;DHT22;51310;52.198;5.422;2022-12-29T07:16:51;9.70;96.10
64843;DHT22;51310;52.198;5.422;2022-12-29T07:19:17;10.70;95.60
64843;DHT22;51310;52.198;5.422;2022-12-29T07:21:43;9.60;96.40
64843;DHT22;51310;52.198;5.422;2022-12-29T07:24:09;9.50;96.60
64843;DHT22;51310;52.198;5.422;2022-12-29T07:26:34;9.40;98.10
64843;DHT22;51310;52.198;5.422;2022-12-29T07:29:02;9.30;98.10
64843;DHT22;51310;52.198;5.422;2022-12-29T07:31:28;9.20;99.90
64843;DHT22;51310;52.198;5.422;2022-12-29T07:33:54;10.10;99.90
64843;DHT22;51310;52.198;5.422;2022-12-29T07:36:20;10.30;99.90
64843;DHT22;51310;52.198;5.422;2022-12-29T07:38:46;9.20;99.90
64843;DHT22;51310;52.198;5.422;2022-12-29T07:41:11;9.10;99.90
64843;DHT22;51310;52.198;5.422;2022-12-29T07:43:37;9.10;99.90
64843;DHT22;51310;52.198;5.422;2022-12-29T07:46:03;9.10;99.90
64843;DHT22;51310;52.198;5.422;2022-12-29T07:48:29;9.20;99.90
64843;DHT22;51310;52.198;5.422;2022-12-29T07:50:54;9.20;99.90
64843;DHT22;51310;52.198;5.422;2022-12-29T07:53:20;9.20;99.90
64843;DHT22;51310;52.198;5.422;2022-12-29T07:55:46;10.80;99.90
64843;DHT22;51310;52.198;5.422;2022-12-29T07:58:12;9.30;99.90
64843;DHT22;51310;52.198;5.422;2022-12-29T08:00:38;9.30;99.90
64843;DHT22;51310;52.198;5.422;2022-12-29T08:03:04;9.20;99.90
64843;DHT22;51310;52.198;5.422;2022-12-29T08:05:34;9.20;99.90
64843;DHT22;51310;52.198;5.422;2022-12-29T08:08:00;9.20;99.90
64843;DHT22;51310;52.198;5.422;2022-12-29T08:10:26;10.90;99.90
64843;DHT22;51310;52.198;5.422;2022-12-29T08:12:52;9.10;99.90
64843;DHT22;51310;52.198;5.422;2022-12-29T08:15:17;9.80;99.90
64843;DHT22;51310;52.198;5.422;2022-12-29T08:17:43;9.20;99.90
64843;DHT22;51310;52.198;5.422;2022-12-29T08:20:09;9.20;99.90
64843;DHT22;51310;52.198;5.422;2022-12-29T08:22:35;9.30;99.90
64843;DHT22;51310;52.198;5.422;2022-12-29T08:25:01;9.30;99.90
64843;DHT22;51310;52.198;5.422;2022-12-29T08:27:27;9.30;99.90
64843;DHT22;51310;52.198;5.422;2022-12-29T08:29:53;9.30;99.20
64843;DHT22;51310;52.198;5.422;2022-12-29T08:32:18;9.40;98.70
64843;DHT22;51310;52.198;5.422;2022-12-29T08:34:45;9.50;98.10
64843;DHT22;51310;52.198;5.422;2022-12-29T08:37:11;9.50;96.80
64843;DHT22;51310;52.198;5.422;2022-12-29T08:39:37;10.60;96.50
64843;DHT22;51310;52.198;5.422;2022-12-29T08:42:02;9.60;94.40
64843;DHT22;51310;52.198;5.422;2022-12-29T08:44:28;9.70;93.70
64843;DHT22;51310;52.198;5.422;2022-12-29T08:46:54;9.70;90.50
64843;DHT22;51310;52.198;5.422;2022-12-29T08:49:19;9.80;91.00
64843;DHT22;51310;52.198;5.422;2022-12-29T08:51:45;9.80;91.70
64843;DHT22;51310;52.198;5.422;2022-12-29T08:54:11;9.80;91.80
64843;DHT22;51310;52.198;5.422;2022-12-29T08:56:37;9.80;93.20
64843;DHT22;51310;52.198;5.422;2022-12-29T08:59:02;9.70;95.10
64843;DHT22;51310;52.198;5.422;2022-12-29T09:01:28;9.70;95.00
64843;DHT22;51310;52.198;5.422;2022-12-29T09:03:55;9.70;95.60
64843;DHT22;51310;52.198;5.422;2022-12-29T09:06:21;9.70;96.50
64843;DHT22;51310;52.198;5.422;2022-12-29T09:08:47;9.80;95.10
64843;DHT22;51310;52.198;5.422;2022-12-29T09:11:22;9.80;98.80
64843;DHT22;51310;52.198;5.422;2022-12-29T09:13:49;10.90;96.60
64843;DHT22;51310;52.198;5.422;2022-12-29T09:16:16;9.90;97.40
64843;DHT22;51310;52.198;5.422;2022-12-29T09:18:43;9.90;97.70
64843;DHT22;51310;52.198;5.422;2022-12-29T09:21:10;9.90;95.90
64843;DHT22;51310;52.198;5.422;2022-12-29T09:23:37;9.90;95.30
64843;DHT22;51310;52.198;5.422;2022-12-29T09:26:03;10.10;95.60
64843;DHT22;51310;52.198;5.422;2022-12-29T09:28:30;10.00;97.30
64843;DHT22;51310;52.198;5.422;2022-12-29T09:30:56;10.00;99.60
64843;DHT22;51310;52.198;5.422;2022-12-29T09:33:23;9.90;98.60
64843;DHT22;51310;52.198;5.422;2022-12-29T09:35:57;10.10;99.90
64843;DHT22;51310;52.198;5.422;2022-12-29T09:38:25;9.80;99.90
64843;DHT22;51310;52.198;5.422;2022-12-29T09:40:54;10.80;99.90
64843;DHT22;51310;52.198;5.422;2022-12-29T09:47:10;9.70;99.90
64843;DHT22;51310;52.198;5.422;2022-12-29T09:50:00;9.70;99.90
64843;DHT22;51310;52.198;5.422;2022-12-29T09:52:55;9.70;99.90
64843;DHT22;51310;52.198;5.422;2022-12-29T09:55:48;9.60;99.90
64843;DHT22;51310;52.198;5.422;2022-12-29T09:58:38;9.60;99.90
64843;DHT22;51310;52.198;5.422;2022-12-29T10:01:18;9.50;99.90
64843;DHT22;51310;52.198;5.422;2022-12-29T10:03:56;9.40;99.90
64843;DHT22;51310;52.198;5.422;2022-12-29T10:06:33;9.40;99.90
64843;DHT22;51310;52.198;5.422;2022-12-29T10:09:10;9.30;99.90
64843;DHT22;51310;52.198;5.422;2022-12-29T10:12:22;10.60;99.90
64843;DHT22;51310;52.198;5.422;2022-12-29T10:15:18;9.30;99.90
64843;DHT22;51310;52.198;5.422;2022-12-29T10:18:28;9.40;99.90
64843;DHT22;51310;52.198;5.422;2022-12-29T10:23:59;9.30;99.90
64843;DHT22;51310;52.198;5.422;2022-12-29T10:26:37;9.30;99.90
64843;DHT22;51310;52.198;5.422;2022-12-29T10:32:02;9.40;99.90
64843;DHT22;51310;52.198;5.422;2022-12-29T10:34:37;9.40;99.90
64843;DHT22;51310;52.198;5.422;2022-12-29T10:40:40;9.50;99.90
64843;DHT22;51310;52.198;5.422;2022-12-29T10:43:47;9.60;99.90
64843;DHT22;51310;52.198;5.422;2022-12-29T10:46:20;9.70;99.90
64843;DHT22;51310;52.198;5.422;2022-12-29T10:48:49;9.70;99.90
64843;DHT22;51310;52.198;5.422;2022-12-29T10:51:21;9.70;99.90
64843;DHT22;51310;52.198;5.422;2022-12-29T10:53:59;9.60;99.90
64843;DHT22;51310;52.198;5.422;2022-12-29T10:56:37;9.50;99.90
64843;DHT22;51310;52.198;5.422;2022-12-29T10:59:19;10.70;99.90
64843;DHT22;51310;52.198;5.422;2022-12-29T11:07:47;9.60;99.90
64843;DHT22;51310;52.198;5.422;2022-12-29T11:13:03;9.70;99.90
64843;DHT22;51310;52.198;5.422;2022-12-29T11:15:54;9.80;99.90
64843;DHT22;51310;52.198;5.422;2022-12-29T11:24:22;9.70;99.90
64843;DHT22;51310;52.198;5.422;2022-12-29T11:26:55;9.60;99.90
64843;DHT22;51310;52.198;5.422;2022-12-29T11:29:40;10.80;99.90
64843;DHT22;51310;52.198;5.422;2022-12-29T11:34:45;9.70;99.90
64843;DHT22;51310;52.198;5.422;2022-12-29T11:37:15;9.80;99.90
64843;DHT22;51310;52.198;5.422;2022-12-29T11:39:52;10.70;99.90
64843;DHT22;51310;52.198;5.422;2022-12-29T11:42:32;10.00;99.90
64843;DHT22;51310;52.198;5.422;2022-12-29T11:45:15;11.30;99.90
64843;DHT22;51310;52.198;5.422;2022-12-29T11:47:48;10.10;99.90
64843;DHT22;51310;52.198;5.422;2022-12-29T11:50:27;10.10;99.90
64843;DHT22;51310;52.198;5.422;2022-12-29T11:53:03;10.10;99.90
64843;DHT22;51310;52.198;5.422;2022-12-29T11:55:38;10.10;99.90
64843;DHT22;51310;52.198;5.422;2022-12-29T11:58:04;10.20;99.90
64843;DHT22;51310;52.198;5.422;2022-12-29T12:00:34;10.30;99.90
64843;DHT22;51310;52.198;5.422;2022-12-29T12:03:11;10.50;99.90
64843;DHT22;51310;52.198;5.422;2022-12-29T12:05:57;10.50;99.90
64843;DHT22;51310;52.198;5.422;2022-12-29T12:08:58;10.70;99.70
64843;DHT22;51310;52.198;5.422;2022-12-29T12:11:39;10.70;98.70
64843;DHT22;51310;52.198;5.422;2022-12-29T12:14:21;10.50;98.70
64843;DHT22;51310;52.198;5.422;2022-12-29T12:16:56;10.30;99.70
64843;DHT22;51310;52.198;5.422;2022-12-29T12:19:43;12.30;99.90
64843;DHT22;51310;52.198;5.422;2022-12-29T12:25:02;10.10;99.90
64843;DHT22;51310;52.198;5.422;2022-12-29T12:27:54;10.10;99.90
64843;DHT22;51310;52.198;5.422;2022-12-29T12:30:26;10.20;99.90
64843;DHT22;51310;52.198;5.422;2022-12-29T12:33:18;10.20;99.90
64843;DHT22;51310;52.198;5.422;2022-12-29T12:43:12;10.00;99.90
64843;DHT22;51310;52.198;5.422;2022-12-29T12:46:27;10.00;99.90
64843;DHT22;51310;52.198;5.422;2022-12-29T12:58:20;10.00;99.90
64843;DHT22;51310;52.198;5.422;2022-12-29T13:01:15;10.00;99.90
64843;DHT22;51310;52.198;5.422;2022-12-29T13:04:02;10.10;99.90
64843;DHT22;51310;52.198;5.422;2022-12-29T13:06:52;10.10;99.90
64843;DHT22;51310;52.198;5.422;2022-12-29T13:09:46;10.20;99.90
64843;DHT22;51310;52.198;5.422;2022-12-29T13:15:17;10.30;99.90
64843;DHT22;51310;52.198;5.422;2022-12-29T13:17:57;10.20;99.90
64843;DHT22;51310;52.198;5.422;2022-12-29T13:23:59;10.20;99.90
64843;DHT22;51310;52.198;5.422;2022-12-29T13:26:53;10.30;99.90
64843;DHT22;51310;52.198;5.422;2022-12-29T13:32:19;10.20;99.50
64843;DHT22;51310;52.198;5.422;2022-12-29T13:35:10;10.20;99.90
64843;DHT22;51310;52.198;5.422;2022-12-29T13:41:08;10.20;98.20
64843;DHT22;51310;52.198;5.422;2022-12-29T13:43:41;10.20;97.20
64843;DHT22;51310;52.198;5.422;2022-12-29T13:46:13;12.20;97.10
64843;DHT22;51310;52.198;5.422;2022-12-29T13:48:59;10.30;97.40
64843;DHT22;51310;52.198;5.422;2022-12-29T13:51:30;10.30;97.30
64843;DHT22;51310;52.198;5.422;2022-12-29T13:56:37;10.30;95.80
64843;DHT22;51310;52.198;5.422;2022-12-29T13:59:37;10.30;94.90
64843;DHT22;51310;52.198;5.422;2022-12-29T14:02:37;10.20;96.50
64843;DHT22;51310;52.198;5.422;2022-12-29T14:07:45;11.50;97.90
64843;DHT22;51310;52.198;5.422;2022-12-29T14:10:37;10.10;98.90
64843;DHT22;51310;52.198;5.422;2022-12-29T14:15:56;10.20;98.20
64843;DHT22;51310;52.198;5.422;2022-12-29T14:18:25;10.20;99.30
64843;DHT22;51310;52.198;5.422;2022-12-29T14:23:41;9.60;99.90
64843;DHT22;51310;52.198;5.422;2022-12-29T14:28:55;9.20;99.90
64843;DHT22;51310;52.198;5.422;2022-12-29T14:36:37;9.10;99.90
64843;DHT22;51310;52.198;5.422;2022-12-29T14:47:39;9.00;99.90
64843;DHT22;51310;52.198;5.422;2022-12-29T14:50:24;8.90;99.90
64843;DHT22;51310;52.198;5.422;2022-12-29T14:55:44;9.00;99.90
64843;DHT22;51310;52.198;5.422;2022-12-29T14:58:21;8.80;99.90
64843;DHT22;51310;52.198;5.422;2022-12-29T15:00:51;8.80;99.90
64843;DHT22;51310;52.198;5.422;2022-12-29T15:03:20;8.70;99.90
64843;DHT22;51310;52.198;5.422;2022-12-29T15:05:50;8.80;99.90
64843;DHT22;51310;52.198;5.422;2022-12-29T15:08:26;10.00;99.90
64843;DHT22;51310;52.198;5.422;2022-12-29T15:11:18;8.70;99.90
64843;DHT22;51310;52.198;5.422;2022-12-29T15:13:48;8.80;99.90
64843;DHT22;51310;52.198;5.422;2022-12-29T15:16:34;8.80;99.90
64843;DHT22;51310;52.198;5.422;2022-12-29T15:19:02;9.60;99.90
64843;DHT22;51310;52.198;5.422;2022-12-29T15:21:32;8.70;99.90
64843;DHT22;51310;52.198;5.422;2022-12-29T15:24:04;8.80;99.90
64843;DHT22;51310;52.198;5.422;2022-12-29T15:26:45;8.70;99.90
64843;DHT22;51310;52.198;5.422;2022-12-29T15:29:38;8.50;99.90
64843;DHT22;51310;52.198;5.422;2022-12-29T15:32:18;8.90;99.90
64843;DHT22;51310;52.198;5.422;2022-12-29T15:34:48;8.90;99.90
64843;DHT22;51310;52.198;5.422;2022-12-29T15:39:53;8.90;99.90
64843;DHT22;51310;52.198;5.422;2022-12-29T15:42:32;8.90;99.90
64843;DHT22;51310;52.198;5.422;2022-12-29T15:45:12;9.20;99.90
64843;DHT22;51310;52.198;5.422;2022-12-29T15:47:42;8.90;99.90
64843;DHT22;51310;52.198;5.422;2022-12-29T15:50:28;7.20;99.90
64843;DHT22;51310;52.198;5.422;2022-12-29T15:52:56;9.00;99.90
64843;DHT22;51310;52.198;5.422;2022-12-29T15:55:33;9.70;99.90
64843;DHT22;51310;52.198;5.422;2022-12-29T15:58:03;9.00;99.90
64843;DHT22;51310;52.198;5.422;2022-12-29T16:00:32;9.00;99.90
64843;DHT22;51310;52.198;5.422;2022-12-29T16:03:03;9.00;99.90
64843;DHT22;51310;52.198;5.422;2022-12-29T16:05:38;9.00;99.90
64843;DHT22;51310;52.198;5.422;2022-12-29T16:08:24;9.00;99.90
64843;DHT22;51310;52.198;5.422;2022-12-29T16:10:58;9.10;99.90
64843;DHT22;51310;52.198;5.422;2022-12-29T16:13:32;9.00;99.90
64843;DHT22;51310;52.198;5.422;2022-12-29T16:16:32;9.00;99.90
64843;DHT22;51310;52.198;5.422;2022-12-29T16:21:47;9.10;99.90
64843;DHT22;51310;52.198;5.422;2022-12-29T16:24:19;9.10;99.90
64843;DHT22;51310;52.198;5.422;2022-12-29T16:27:07;10.60;99.90
64843;DHT22;51310;52.198;5.422;2022-12-29T16:29:34;9.10;99.90
64843;DHT22;51310;52.198;5.422;2022-12-29T16:32:01;9.80;99.90
64843;DHT22;51310;52.198;5.422;2022-12-29T16:37:29;10.60;99.90
64843;DHT22;51310;52.198;5.422;2022-12-29T16:50:45;8.80;99.90
64843;DHT22;51310;52.198;5.422;2022-12-29T16:53:35;8.70;99.90
64843;DHT22;51310;52.198;5.422;2022-12-29T16:56:25;8.70;99.90
64843;DHT22;51310;52.198;5.422;2022-12-29T16:59:02;9.70;99.90
64843;DHT22;51310;52.198;5.422;2022-12-29T17:01:36;8.70;99.90
64843;DHT22;51310;52.198;5.422;2022-12-29T17:04:07;8.60;99.90
64843;DHT22;51310;52.198;5.422;2022-12-29T17:06:35;8.50;99.90
64843;DHT22;51310;52.198;5.422;2022-12-29T17:09:01;9.30;99.90
64843;DHT22;51310;52.198;5.422;2022-12-29T17:11:32;8.50;99.90
64843;DHT22;51310;52.198;5.422;2022-12-29T17:14:30;9.10;99.90
64843;DHT22;51310;52.198;5.422;2022-12-29T17:17:02;8.60;99.90
64843;DHT22;51310;52.198;5.422;2022-12-29T17:19:33;8.50;99.90
64843;DHT22;51310;52.198;5.422;2022-12-29T17:22:00;8.40;99.90
64843;DHT22;51310;52.198;5.422;2022-12-29T17:24:27;9.50;99.90
64843;DHT22;51310;52.198;5.422;2022-12-29T17:26:56;8.30;99.90
64843;DHT22;51310;52.198;5.422;2022-12-29T17:29:29;8.30;99.90
64843;DHT22;51310;52.198;5.422;2022-12-29T17:31:58;8.30;99.90
64843;DHT22;51310;52.198;5.422;2022-12-29T17:34:24;8.30;99.90
64843;DHT22;51310;52.198;5.422;2022-12-29T17:36:51;8.30;99.90
64843;DHT22;51310;52.198;5.422;2022-12-29T17:39:16;8.70;99.90
64843;DHT22;51310;52.198;5.422;2022-12-29T17:41:42;8.30;99.90
64843;DHT22;51310;52.198;5.422;2022-12-29T17:44:15;8.30;99.90
64843;DHT22;51310;52.198;5.422;2022-12-29T17:46:44;8.20;99.90
64843;DHT22;51310;52.198;5.422;2022-12-29T17:49:15;8.10;99.90
64843;DHT22;51310;52.198;5.422;2022-12-29T17:51:44;8.10;99.90
64843;DHT22;51310;52.198;5.422;2022-12-29T17:54:23;8.10;99.90
64843;DHT22;51310;52.198;5.422;2022-12-29T17:56:50;8.80;99.90
64843;DHT22;51310;52.198;5.422;2022-12-29T17:59:17;8.00;99.90
64843;DHT22;51310;52.198;5.422;2022-12-29T18:01:44;8.00;99.90
64843;DHT22;51310;52.198;5.422;2022-12-29T18:04:18;8.00;99.90
64843;DHT22;51310;52.198;5.422;2022-12-29T18:06:45;7.90;99.90
64843;DHT22;51310;52.198;5.422;2022-12-29T18:09:12;7.90;99.90
64843;DHT22;51310;52.198;5.422;2022-12-29T18:11:40;8.00;98.60
64843;DHT22;51310;52.198;5.422;2022-12-29T18:14:15;8.00;98.60
64843;DHT22;51310;52.198;5.422;2022-12-29T18:16:41;7.90;99.20
64843;DHT22;51310;52.198;5.422;2022-12-29T18:19:07;7.90;98.40
64843;DHT22;51310;52.198;5.422;2022-12-29T18:21:35;7.90;98.20
64843;DHT22;51310;52.198;5.422;2022-12-29T18:24:01;7.90;98.90
64843;DHT22;51310;52.198;5.422;2022-12-29T18:26:28;7.90;98.80
64843;DHT22;51310;52.198;5.422;2022-12-29T18:28:59;7.90;98.50
64843;DHT22;51310;52.198;5.422;2022-12-29T18:31:27;7.90;98.40